Time;durP1;ratioP1;P1;durP2;ratioP2;P2;SDS_P1;SDS_P2;PMS_P1;PMS_P2;Temp;Humidity;BMP_temperature;BMP_pressure;BME280_temperature;BME280_humidity;BME280_pressure;Samples;Min_cycle;Max_cycle;Signal;HPM_P1;HPM_P2
2023/09/25 00:02:07;;;;;;;6.32;2.90;;;;;10.60;99249.00;;;;5052840;28;20052;-67
2023/09/25 00:04:34;;;;;;;3.75;2.75;;;;;10.40;99247.00;;;;5052480;28;20048;-68
2023/09/25 00:07:03;;;;;;;3.67;2.75;;;;;10.40;99248.00;;;;5054101;28;20049;-67
2023/09/25 00:09:30;;;;;;;4.07;2.35;;;;;10.40;99242.00;;;;5054036;28;20489;-68
2023/09/25 00:11:56;;;;;;;3.65;2.70;;;;;10.40;99240.00;;;;5054119;28;20048;-68
2023/09/25 00:14:23;;;;;;;2.85;2.30;;;;;10.30;99231.00;;;;5053364;28;20474;-68
2023/09/25 00:16:50;;;;;;;3.60;2.58;;;;;10.30;99240.00;;;;5052517;28;20055;-68
2023/09/25 00:19:16;;;;;;;3.33;2.65;;;;;10.30;99234.00;;;;5054018;28;20067;-68
2023/09/25 00:21:43;;;;;;;5.93;2.42;;;;;10.30;99235.00;;;;5054028;28;20532;-68
2023/09/25 00:24:10;;;;;;;3.15;2.20;;;;;10.30;99238.00;;;;5052315;28;20056;-68
2023/09/25 00:26:36;;;;;;;5.07;3.00;;;;;10.40;99242.00;;;;5053697;28;20052;-68
2023/09/25 00:29:03;;;;;;;3.50;2.47;;;;;10.50;99244.00;;;;5036029;28;20041;-68
2023/09/25 00:31:30;;;;;;;6.90;2.70;;;;;10.50;99243.00;;;;5052595;28;20144;-67
2023/09/25 00:33:57;;;;;;;3.65;2.28;;;;;10.60;99247.00;;;;5035385;28;20055;-68
2023/09/25 00:36:25;;;;;;;4.13;2.65;;;;;10.70;99252.00;;;;5052315;28;20588;-68
2023/09/25 00:38:52;;;;;;;3.45;2.47;;;;;10.80;99245.00;;;;5052343;28;20041;-67
2023/09/25 00:41:19;;;;;;;3.05;2.53;;;;;10.80;99251.00;;;;5052187;28;20051;-67
2023/09/25 00:43:46;;;;;;;4.90;2.33;;;;;10.70;99249.00;;;;5051613;28;20736;-68
2023/09/25 00:46:13;;;;;;;3.35;2.45;;;;;10.80;99242.00;;;;5052349;28;20045;-68
2023/09/25 00:48:42;;;;;;;3.60;2.25;;;;;10.80;99242.00;;;;5035745;28;20052;-68
2023/09/25 00:51:09;;;;;;;3.72;2.50;;;;;10.80;99244.00;;;;5053373;28;20501;-68
2023/09/25 00:53:40;;;;;;;3.70;2.72;;;;;10.60;99240.00;;;;5052767;28;20716;-68
2023/09/25 00:56:08;;;;;;;3.47;2.55;;;;;10.40;99251.00;;;;5053294;28;20525;-68
2023/09/25 00:58:34;;;;;;;3.47;2.42;;;;;10.30;99235.00;;;;5053253;28;20103;-68
2023/09/25 01:01:01;;;;;;;3.60;2.60;;;;;10.20;99242.00;;;;5035149;28;20052;-68
2023/09/25 01:03:30;;;;;;;3.60;2.65;;;;;10.10;99240.00;;;;5052333;28;20405;-67
2023/09/25 01:05:58;;;;;;;3.72;2.58;;;;;10.00;99239.00;;;;5051898;28;20049;-68
2023/09/25 01:08:24;;;;;;;3.40;2.50;;;;;10.00;99241.00;;;;5052036;28;20072;-68
2023/09/25 01:10:51;;;;;;;2.92;2.40;;;;;10.00;99237.00;;;;5052214;28;20087;-68
2023/09/25 01:13:17;;;;;;;2.63;2.10;;;;;10.00;99243.00;;;;5052842;28;20044;-68
2023/09/25 01:15:45;;;;;;;2.60;2.30;;;;;10.00;99246.00;;;;5034381;28;20053;-68
2023/09/25 01:18:12;;;;;;;3.05;2.30;;;;;10.00;99239.00;;;;5051615;28;20134;-68
2023/09/25 01:20:38;;;;;;;4.93;2.95;;;;;9.90;99230.00;;;;5051774;28;20045;-68
2023/09/25 01:23:05;;;;;;;3.90;2.10;;;;;9.90;99226.00;;;;5051499;28;20498;-68
2023/09/25 01:25:32;;;;;;;3.00;2.65;;;;;9.90;99234.00;;;;5050845;28;20498;-68
2023/09/25 01:27:58;;;;;;;3.70;2.17;;;;;10.00;99233.00;;;;5035128;28;20049;-68
2023/09/25 01:30:25;;;;;;;4.03;2.30;;;;;10.00;99224.00;;;;5051511;28;20041;-68
2023/09/25 01:32:53;;;;;;;2.45;2.25;;;;;10.10;99227.00;;;;5034931;28;20096;-68
2023/09/25 01:35:26;;;;;;;4.93;2.40;;;;;10.10;99217.00;;;;5052195;28;20055;-68
2023/09/25 01:37:58;;;;;;;3.25;2.08;;;;;10.10;99219.00;;;;5034890;28;20049;-68
2023/09/25 01:40:25;;;;;;;5.22;2.78;;;;;10.10;99221.00;;;;5051557;28;20402;-68
2023/09/25 01:42:52;;;;;;;3.75;2.15;;;;;10.10;99218.00;;;;5051139;28;20581;-68
2023/09/25 01:45:19;;;;;;;3.35;2.25;;;;;10.00;99212.00;;;;5050879;28;20481;-68
2023/09/25 01:47:51;;;;;;;4.00;2.50;;;;;9.80;99213.00;;;;5051056;28;20528;-68
2023/09/25 01:50:27;;;;;;;4.80;2.40;;;;;9.70;99212.00;;;;5035163;28;20149;-69
2023/09/25 01:52:59;;;;;;;4.60;2.42;;;;;9.70;99206.00;;;;5051120;28;20072;-68
2023/09/25 01:55:31;;;;;;;5.07;2.45;;;;;9.70;99207.00;;;;5050267;28;20045;-69
2023/09/25 01:57:58;;;;;;;4.45;2.20;;;;;9.60;99208.00;;;;5051305;28;20041;-68
2023/09/25 02:00:25;;;;;;;3.20;2.30;;;;;9.60;99201.00;;;;5051274;28;20037;-69
2023/09/25 02:02:52;;;;;;;1.95;1.75;;;;;9.60;99203.00;;;;5052579;28;20071;-68
2023/09/25 02:05:19;;;;;;;3.22;1.65;;;;;9.60;99199.00;;;;5052011;28;20041;-69
2023/09/25 02:07:46;;;;;;;3.83;2.65;;;;;9.60;99202.00;;;;5052066;28;20041;-68
2023/09/25 02:10:13;;;;;;;2.42;1.88;;;;;9.70;99199.00;;;;5051884;28;20083;-68
2023/09/25 02:12:40;;;;;;;3.08;2.00;;;;;9.70;99199.00;;;;5052015;28;20037;-69
2023/09/25 02:15:08;;;;;;;2.60;2.13;;;;;9.80;99199.00;;;;5050024;28;20041;-68
2023/09/25 02:17:35;;;;;;;3.35;2.05;;;;;9.80;99193.00;;;;5050929;28;20040;-68
2023/09/25 02:20:19;;;;;;;4.35;2.25;;;;;9.60;99203.00;;;;5051859;28;20037;-67
2023/09/25 02:22:47;;;;;;;2.22;1.77;;;;;9.50;99189.00;;;;5050675;28;20049;-67
2023/09/25 02:25:15;;;;;;;4.65;2.28;;;;;9.40;99189.00;;;;5051226;28;20051;-68
2023/09/25 02:27:42;;;;;;;4.53;2.30;;;;;9.40;99184.00;;;;5051851;28;20045;-68
2023/09/25 02:30:09;;;;;;;4.78;2.10;;;;;9.30;99182.00;;;;5051943;28;20060;-68
2023/09/25 02:32:37;;;;;;;4.22;2.13;;;;;9.30;99182.00;;;;5050429;28;20091;-67
2023/09/25 02:35:05;;;;;;;3.28;1.92;;;;;9.30;99174.00;;;;5050186;28;20052;-68
2023/09/25 02:37:32;;;;;;;3.00;2.35;;;;;9.40;99171.00;;;;5051723;28;20041;-68
2023/09/25 02:39:58;;;;;;;4.55;2.20;;;;;9.30;99178.00;;;;5050507;28;20045;-68
2023/09/25 02:42:25;;;;;;;3.42;2.10;;;;;9.30;99176.00;;;;5051825;28;20698;-67
2023/09/25 02:44:52;;;;;;;2.60;2.40;;;;;9.30;99178.00;;;;5050079;28;20124;-68
2023/09/25 02:47:18;;;;;;;3.85;2.22;;;;;9.30;99176.00;;;;5050359;28;20045;-68
2023/09/25 02:49:45;;;;;;;3.33;2.17;;;;;9.20;99165.00;;;;5050304;28;20068;-68
2023/09/25 02:52:12;;;;;;;5.20;2.78;;;;;9.40;99176.00;;;;5051683;28;20557;-68
2023/09/25 02:54:38;;;;;;;3.22;2.13;;;;;9.50;99180.00;;;;5049678;28;20510;-67
2023/09/25 02:57:05;;;;;;;3.60;2.40;;;;;9.60;99176.00;;;;5051476;28;20482;-67
2023/09/25 02:59:31;;;;;;;3.70;2.20;;;;;9.50;99176.00;;;;5050389;28;20078;-67
2023/09/25 03:01:58;;;;;;;3.85;2.28;;;;;9.60;99173.00;;;;5050166;28;20078;-68
2023/09/25 03:04:25;;;;;;;3.55;2.45;;;;;9.70;99172.00;;;;5049830;28;20041;-68
2023/09/25 03:06:51;;;;;;;4.55;2.10;;;;;9.70;99174.00;;;;5050686;28;20498;-68
2023/09/25 03:09:18;;;;;;;4.28;2.15;;;;;9.60;99177.00;;;;5055140;28;20124;-67
2023/09/25 03:11:44;;;;;;;3.65;2.10;;;;;9.50;99181.00;;;;5055273;28;20036;-67
2023/09/25 03:14:11;;;;;;;5.78;3.05;;;;;9.50;99167.00;;;;5053305;28;20484;-67
2023/09/25 03:16:39;;;;;;;4.20;2.83;;;;;9.40;99180.00;;;;5054011;28;20083;-68
2023/09/25 03:19:06;;;;;;;4.90;2.97;;;;;9.40;99169.00;;;;5055210;28;20486;-67
2023/09/25 03:21:33;;;;;;;4.65;2.38;;;;;9.20;99167.00;;;;5055207;28;20056;-67
2023/09/25 03:24:00;;;;;;;3.10;2.08;;;;;9.10;99166.00;;;;5053415;28;20135;-67
2023/09/25 03:26:27;;;;;;;2.33;2.13;;;;;9.10;99171.00;;;;5053832;28;20045;-67
2023/09/25 03:28:54;;;;;;;3.47;2.47;;;;;9.10;99172.00;;;;5053741;28;20049;-68
2023/09/25 03:31:20;;;;;;;5.80;2.30;;;;;9.10;99180.00;;;;5055054;28;20064;-69
2023/09/25 03:33:47;;;;;;;4.72;2.60;;;;;9.00;99166.00;;;;5053025;28;20068;-68
2023/09/25 03:36:14;;;;;;;3.28;2.28;;;;;9.00;99164.00;;;;5037086;28;20068;-67
2023/09/25 03:38:40;;;;;;;5.07;2.20;;;;;9.00;99164.00;;;;5054410;28;20071;-67
2023/09/25 03:41:07;;;;;;;5.68;2.50;;;;;9.10;99158.00;;;;5053301;28;20136;-67
2023/09/25 03:43:34;;;;;;;2.78;1.98;;;;;9.10;99168.00;;;;5052878;28;20041;-67
2023/09/25 03:46:02;;;;;;;4.65;2.45;;;;;9.20;99168.00;;;;5053216;28;20114;-67
2023/09/25 03:48:29;;;;;;;4.15;2.30;;;;;9.20;99168.00;;;;5053398;28;20079;-67
2023/09/25 03:50:55;;;;;;;5.30;2.05;;;;;9.20;99169.00;;;;5036699;28;20045;-67
2023/09/25 03:53:22;;;;;;;4.07;3.00;;;;;9.10;99178.00;;;;5053241;28;20076;-67
2023/09/25 03:55:49;;;;;;;4.70;2.78;;;;;9.10;99183.00;;;;5053838;28;20041;-67
2023/09/25 03:58:15;;;;;;;2.72;2.30;;;;;9.00;99170.00;;;;5053224;28;20073;-67
2023/09/25 04:00:42;;;;;;;2.63;2.13;;;;;8.80;99175.00;;;;5053127;28;20390;-67
2023/09/25 04:03:09;;;;;;;3.20;2.38;;;;;8.60;99172.00;;;;5052915;28;20053;-67
2023/09/25 04:05:35;;;;;;;2.85;2.22;;;;;8.50;99180.00;;;;5052428;28;20041;-67
2023/09/25 04:08:03;;;;;;;5.90;2.60;;;;;8.50;99179.00;;;;5054280;28;20068;-67
2023/09/25 04:10:30;;;;;;;3.47;2.20;;;;;8.40;99172.00;;;;5053997;28;20065;-67
2023/09/25 04:12:56;;;;;;;4.97;2.47;;;;;8.40;99179.00;;;;5054301;28;20453;-67
2023/09/25 04:15:24;;;;;;;2.55;2.15;;;;;8.50;99177.00;;;;5053374;28;20051;-67
2023/09/25 04:17:54;;;;;;;5.20;3.13;;;;;8.50;99173.00;;;;5054139;28;20398;-68
2023/09/25 04:20:24;;;;;;;5.15;2.78;;;;;8.40;99175.00;;;;5053288;28;20059;-67
2023/09/25 04:22:52;;;;;;;4.22;2.63;;;;;8.40;99176.00;;;;5054212;28;20037;-67
2023/09/25 04:25:19;;;;;;;6.43;4.25;;;;;8.40;99180.00;;;;5053208;28;20044;-67
2023/09/25 04:27:53;;;;;;;5.30;2.75;;;;;8.30;99178.00;;;;5053880;28;20079;-67
2023/09/25 04:30:21;;;;;;;6.22;2.20;;;;;8.40;99187.00;;;;5053797;28;20476;-67
2023/09/25 04:32:49;;;;;;;6.53;2.75;;;;;8.50;99193.00;;;;5053810;28;20045;-67
2023/09/25 04:35:16;;;;;;;3.95;3.25;;;;;8.50;99192.00;;;;5053071;28;20132;-67
2023/09/25 04:37:44;;;;;;;4.03;2.45;;;;;8.40;99193.00;;;;5053879;28;20045;-68
2023/09/25 04:40:22;;;;;;;5.10;2.78;;;;;8.30;99190.00;;;;5053892;28;20037;-67
2023/09/25 04:42:49;;;;;;;6.78;2.28;;;;;8.30;99184.00;;;;5053580;28;20060;-67
2023/09/25 04:45:18;;;;;;;3.28;2.65;;;;;8.30;99188.00;;;;5035139;28;20045;-67
2023/09/25 04:47:52;;;;;;;3.10;2.63;;;;;8.40;99185.00;;;;5053508;28;20159;-67
2023/09/25 04:50:21;;;;;;;3.78;3.05;;;;;8.30;99187.00;;;;5052452;28;20053;-68
2023/09/25 04:52:50;;;;;;;5.88;2.80;;;;;8.30;99193.00;;;;5053676;28;20044;-67
2023/09/25 04:55:17;;;;;;;6.30;3.60;;;;;8.40;99192.00;;;;5051435;28;20613;-67
2023/09/25 04:57:46;;;;;;;4.55;3.17;;;;;8.50;99191.00;;;;5053345;28;20431;-68
2023/09/25 05:00:21;;;;;;;7.85;3.58;;;;;8.60;99198.00;;;;5056210;28;20060;-67
2023/09/25 05:02:49;;;;;;;7.28;3.15;;;;;8.60;99200.00;;;;5055423;28;20049;-66
2023/09/25 05:05:17;;;;;;;5.35;3.72;;;;;8.50;99193.00;;;;5053901;28;20077;-67
2023/09/25 05:07:46;;;;;;;5.25;2.70;;;;;8.50;99192.00;;;;5054124;28;20045;-66
2023/09/25 05:10:14;;;;;;;3.80;2.63;;;;;8.40;99194.00;;;;5053204;28;20041;-67
2023/09/25 05:12:42;;;;;;;4.30;2.80;;;;;8.40;99192.00;;;;5053396;28;20423;-67
2023/09/25 05:15:10;;;;;;;5.10;2.67;;;;;8.40;99190.00;;;;5052859;28;20102;-67
2023/09/25 05:17:39;;;;;;;3.75;2.75;;;;;8.50;99193.00;;;;5053478;28;20044;-66
2023/09/25 05:20:11;;;;;;;4.30;2.75;;;;;8.50;99194.00;;;;5052988;28;20052;-67
2023/09/25 05:22:39;;;;;;;6.50;2.75;;;;;8.40;99198.00;;;;5053005;28;20056;-68
2023/09/25 05:25:08;;;;;;;5.00;3.20;;;;;8.40;99194.00;;;;5051965;28;20308;-67
2023/09/25 05:27:39;;;;;;;4.97;2.80;;;;;8.40;99200.00;;;;5052756;28;20421;-68
2023/09/25 05:30:10;;;;;;;3.53;2.50;;;;;8.30;99200.00;;;;5052235;28;20041;-67
2023/09/25 05:32:38;;;;;;;7.68;3.30;;;;;8.10;99195.00;;;;5051920;28;20037;-67
2023/09/25 05:35:06;;;;;;;5.38;2.95;;;;;8.10;99196.00;;;;5050649;28;20094;-67
2023/09/25 05:37:35;;;;;;;7.50;3.08;;;;;8.10;99194.00;;;;5052518;28;20045;-67
2023/09/25 05:40:05;;;;;;;3.88;2.60;;;;;8.10;99196.00;;;;5052613;28;20072;-66
2023/09/25 05:42:31;;;;;;;5.10;2.92;;;;;8.10;99199.00;;;;5052530;28;20080;-67
2023/09/25 05:44:58;;;;;;;6.40;2.97;;;;;8.10;99198.00;;;;5051827;28;20044;-67
2023/09/25 05:47:25;;;;;;;5.10;3.10;;;;;8.10;99189.00;;;;5052405;28;20072;-67
2023/09/25 05:49:51;;;;;;;4.97;2.80;;;;;8.00;99194.00;;;;5051164;28;20440;-67
2023/09/25 05:52:18;;;;;;;5.18;3.05;;;;;8.10;99189.00;;;;5051129;28;20080;-67
2023/09/25 05:54:45;;;;;;;6.45;3.00;;;;;8.10;99201.00;;;;5050392;28;20143;-67
2023/09/25 05:57:12;;;;;;;4.68;3.17;;;;;8.30;99196.00;;;;5051067;28;20049;-67
2023/09/25 05:59:39;;;;;;;6.45;3.42;;;;;8.40;99197.00;;;;5052241;28;20051;-67
2023/09/25 06:02:07;;;;;;;6.90;4.25;;;;;8.50;99196.00;;;;5051897;28;20102;-67
2023/09/25 06:04:37;;;;;;;3.20;2.33;;;;;8.70;99202.00;;;;5051439;28;20170;-67
2023/09/25 06:07:05;;;;;;;4.53;2.78;;;;;8.60;99201.00;;;;5052003;28;20072;-67
2023/09/25 06:09:32;;;;;;;5.40;2.75;;;;;8.50;99205.00;;;;5052212;28;20087;-67
2023/09/25 06:12:00;;;;;;;12.27;3.20;;;;;8.50;99199.00;;;;5052080;28;20049;-67
2023/09/25 06:14:30;;;;;;;3.75;2.63;;;;;8.60;99207.00;;;;5050222;28;20147;-67
2023/09/25 06:17:00;;;;;;;6.05;2.25;;;;;8.80;99207.00;;;;5050903;28;20496;-67
2023/09/25 06:19:27;;;;;;;6.82;2.60;;;;;9.00;99217.00;;;;5052134;28;20137;-67
2023/09/25 06:21:54;;;;;;;3.35;2.35;;;;;9.00;99209.00;;;;5052175;28;20043;-67
2023/09/25 06:24:21;;;;;;;4.18;2.30;;;;;9.00;99207.00;;;;5050355;28;20041;-67
2023/09/25 06:26:49;;;;;;;4.38;2.70;;;;;9.10;99217.00;;;;5050603;28;20059;-67
2023/09/25 06:29:16;;;;;;;5.75;2.72;;;;;9.20;99215.00;;;;5050531;28;20091;-67
2023/09/25 06:31:43;;;;;;;5.03;2.50;;;;;9.50;99216.00;;;;5034289;28;20049;-68
2023/09/25 06:34:25;;;;;;;5.18;2.60;;;;;9.70;99222.00;;;;5050018;28;20049;-67
2023/09/25 06:36:52;;;;;;;5.45;2.45;;;;;9.80;99225.00;;;;5052624;28;20083;-66
2023/09/25 06:39:19;;;;;;;4.90;2.40;;;;;9.90;99228.00;;;;5034066;28;20139;-66
2023/09/25 06:41:46;;;;;;;5.18;2.75;;;;;10.00;99225.00;;;;5050955;28;20127;-66
2023/09/25 06:44:19;;;;;;;7.25;3.58;;;;;10.10;99228.00;;;;5055414;28;20049;-66
2023/09/25 06:46:46;;;;;;;6.50;3.20;;;;;10.20;99224.00;;;;5055328;28;20382;-66
2023/09/25 06:49:12;;;;;;;4.63;2.83;;;;;10.30;99217.00;;;;5054623;28;20068;-66
2023/09/25 06:51:39;;;;;;;5.18;3.47;;;;;10.30;99216.00;;;;5054594;28;20049;-66
2023/09/25 06:54:06;;;;;;;7.43;3.42;;;;;10.30;99219.00;;;;5053841;28;20086;-66
2023/09/25 06:56:35;;;;;;;9.02;3.65;;;;;10.40;99221.00;;;;5054300;28;20056;-66
2023/09/25 06:59:02;;;;;;;5.05;2.90;;;;;10.50;99226.00;;;;5054310;28;20060;-66
2023/09/25 07:01:28;;;;;;;5.93;3.17;;;;;10.50;99222.00;;;;5055298;28;20049;-66
2023/09/25 07:03:56;;;;;;;9.05;2.97;;;;;10.60;99227.00;;;;5053486;28;20053;-68
2023/09/25 07:06:23;;;;;;;4.93;3.00;;;;;10.60;99226.00;;;;5055193;28;20049;-66
2023/09/25 07:08:50;;;;;;;6.53;2.97;;;;;10.70;99228.00;;;;5055105;28;20049;-65
2023/09/25 07:11:18;;;;;;;8.50;3.50;;;;;10.80;99228.00;;;;5055352;28;20045;-66
2023/09/25 07:13:45;;;;;;;6.13;3.70;;;;;11.00;99233.00;;;;5054518;28;20057;-67
2023/09/25 07:16:11;;;;;;;7.97;4.07;;;;;11.20;99238.00;;;;5053634;28;20124;-68
2023/09/25 07:18:38;;;;;;;9.25;3.70;;;;;11.40;99235.00;;;;5053983;28;20053;-68
2023/09/25 07:21:05;;;;;;;13.32;3.53;;;;;11.40;99240.00;;;;5053817;28;20120;-67
2023/09/25 07:23:32;;;;;;;9.55;3.42;;;;;11.50;99232.00;;;;5053164;28;20055;-68
2023/09/25 07:26:07;;;;;;;5.38;3.10;;;;;11.60;99243.00;;;;5053790;28;20079;-67
2023/09/25 07:28:37;;;;;;;6.13;3.38;;;;;11.80;99237.00;;;;5053992;28;20056;-69
2023/09/25 07:31:05;;;;;;;15.07;4.60;;;;;11.90;99238.00;;;;5037384;28;20048;-68
2023/09/25 07:33:34;;;;;;;8.73;3.97;;;;;12.10;99235.00;;;;5053312;28;20099;-67
2023/09/25 07:36:01;;;;;;;10.57;4.15;;;;;12.30;99233.00;;;;5054768;28;20107;-68
2023/09/25 07:38:31;;;;;;;7.10;3.13;;;;;12.30;99229.00;;;;5053588;28;20044;-67
2023/09/25 07:40:58;;;;;;;5.15;3.33;;;;;12.30;99223.00;;;;5054811;28;20041;-67
2023/09/25 07:43:29;;;;;;;8.35;3.30;;;;;12.40;99238.00;;;;5054662;28;20041;-67
2023/09/25 07:46:00;;;;;;;6.88;3.83;;;;;12.60;99227.00;;;;5054489;28;20044;-67
2023/09/25 07:48:27;;;;;;;7.05;3.25;;;;;12.80;99238.00;;;;5054994;28;20049;-68
2023/09/25 07:50:58;;;;;;;5.50;3.60;;;;;12.90;99238.00;;;;5054521;28;20080;-67
2023/09/25 07:53:25;;;;;;;8.93;3.72;;;;;13.00;99241.00;;;;5052297;28;20076;-71
2023/09/25 07:55:51;;;;;;;4.68;3.05;;;;;13.20;99246.00;;;;5054055;28;20037;-67
2023/09/25 07:58:18;;;;;;;6.15;3.33;;;;;13.20;99251.00;;;;5036891;28;20144;-67
2023/09/25 08:00:47;;;;;;;4.22;2.85;;;;;13.30;99255.00;;;;5053221;28;20049;-67
2023/09/25 08:03:21;;;;;;;7.43;3.25;;;;;13.50;99250.00;;;;5053131;28;20049;-67
2023/09/25 08:05:48;;;;;;;7.20;3.17;;;;;13.60;99248.00;;;;5054306;28;20045;-67
2023/09/25 08:08:15;;;;;;;8.50;3.58;;;;;13.70;99247.00;;;;5053288;28;20045;-67
2023/09/25 08:10:45;;;;;;;5.13;2.65;;;;;13.80;99246.00;;;;5053344;28;20045;-67
2023/09/25 08:13:11;;;;;;;5.43;2.90;;;;;13.90;99247.00;;;;5054203;28;20037;-67
2023/09/25 08:15:41;;;;;;;4.55;2.72;;;;;14.00;99245.00;;;;5052239;28;20056;-68
2023/09/25 08:18:08;;;;;;;6.25;2.92;;;;;14.10;99258.00;;;;5052581;28;20128;-67
2023/09/25 08:20:35;;;;;;;7.63;3.33;;;;;14.30;99257.00;;;;5054017;28;20050;-67
2023/09/25 08:23:02;;;;;;;6.20;2.88;;;;;14.40;99252.00;;;;5052972;28;20041;-68
2023/09/25 08:25:30;;;;;;;6.15;2.42;;;;;14.50;99254.00;;;;5052070;28;20044;-66
2023/09/25 08:27:56;;;;;;;4.78;2.38;;;;;14.60;99244.00;;;;5053848;28;20115;-66
2023/09/25 08:30:23;;;;;;;3.55;2.40;;;;;14.60;99248.00;;;;5053777;28;20051;-66
2023/09/25 08:32:50;;;;;;;2.22;1.90;;;;;14.70;99241.00;;;;5053704;28;20052;-67
2023/09/25 08:35:17;;;;;;;4.30;3.00;;;;;14.80;99246.00;;;;5052876;28;20098;-67
2023/09/25 08:37:43;;;;;;;4.97;2.63;;;;;14.90;99246.00;;;;5053748;28;20047;-66
2023/09/25 08:40:10;;;;;;;4.45;2.63;;;;;15.10;99253.00;;;;5053735;28;20048;-67
2023/09/25 08:42:37;;;;;;;3.40;1.98;;;;;15.20;99256.00;;;;5052386;28;20497;-66
2023/09/25 08:45:05;;;;;;;3.25;2.17;;;;;15.40;99253.00;;;;5051709;28;20135;-67
2023/09/25 08:47:34;;;;;;;4.80;2.40;;;;;15.60;99252.00;;;;5053456;28;20119;-66
2023/09/25 08:50:01;;;;;;;4.30;2.00;;;;;15.70;99247.00;;;;5052392;28;20051;-67
2023/09/25 08:52:28;;;;;;;2.00;1.80;;;;;15.90;99257.00;;;;5052022;28;20076;-67
2023/09/25 08:54:55;;;;;;;5.25;2.00;;;;;16.00;99258.00;;;;5052665;28;20048;-66
2023/09/25 08:57:25;;;;;;;4.80;1.70;;;;;16.00;99262.00;;;;5051989;28;20048;-66
2023/09/25 08:59:51;;;;;;;5.05;2.33;;;;;16.20;99267.00;;;;5052089;28;20060;-67
2023/09/25 09:02:18;;;;;;;3.38;1.90;;;;;16.30;99259.00;;;;5053087;28;20080;-66
2023/09/25 09:04:45;;;;;;;3.92;2.00;;;;;16.40;99255.00;;;;5052290;28;20047;-67
2023/09/25 09:07:15;;;;;;;5.28;2.10;;;;;16.60;99260.00;;;;5053001;28;20388;-66
2023/09/25 09:09:43;;;;;;;2.45;1.80;;;;;16.70;99263.00;;;;5052964;28;20048;-67
2023/09/25 09:12:11;;;;;;;2.33;1.70;;;;;16.80;99255.00;;;;5052014;28;20064;-67
2023/09/25 09:14:43;;;;;;;5.90;2.35;;;;;17.00;99252.00;;;;5051098;28;20048;-67
2023/09/25 09:17:11;;;;;;;4.43;2.13;;;;;17.10;99247.00;;;;5052895;28;20060;-67
2023/09/25 09:19:43;;;;;;;2.40;1.80;;;;;17.20;99247.00;;;;5052813;28;20467;-67
2023/09/25 09:22:10;;;;;;;1.85;1.67;;;;;17.30;99245.00;;;;5052698;28;20041;-67
2023/09/25 09:24:38;;;;;;;1.92;1.65;;;;;17.30;99239.00;;;;5051038;28;20051;-67
2023/09/25 09:27:08;;;;;;;4.07;1.85;;;;;17.40;99249.00;;;;5052589;28;20048;-66
2023/09/25 09:29:38;;;;;;;3.10;1.33;;;;;17.50;99245.00;;;;5052698;28;20080;-67
2023/09/25 09:32:06;;;;;;;1.90;1.50;;;;;17.60;99239.00;;;;5034628;28;20043;-68
2023/09/25 09:34:33;;;;;;;2.78;1.88;;;;;17.70;99237.00;;;;5050612;28;20044;-68
2023/09/25 09:37:00;;;;;;;4.47;2.28;;;;;17.80;99237.00;;;;5052264;28;20493;-68
2023/09/25 09:39:34;;;;;;;2.75;2.17;;;;;18.00;99237.00;;;;5050959;28;20543;-68
2023/09/25 09:42:08;;;;;;;4.05;2.30;;;;;18.10;99243.00;;;;5050814;28;20069;-68
2023/09/25 09:44:35;;;;;;;3.38;2.20;;;;;18.20;99236.00;;;;5051902;28;20098;-68
2023/09/25 09:47:04;;;;;;;4.13;1.80;;;;;18.40;99240.00;;;;5050919;28;20052;-68
2023/09/25 09:49:34;;;;;;;4.55;2.08;;;;;18.60;99240.00;;;;5052441;28;20072;-68
2023/09/25 09:52:02;;;;;;;2.88;1.70;;;;;18.60;99233.00;;;;5034652;28;20140;-68
2023/09/25 09:54:36;;;;;;;2.85;2.15;;;;;18.70;99234.00;;;;5051629;28;20041;-68
2023/09/25 09:57:02;;;;;;;;;;;;;18.80;99237.00;;;;5051360;28;20494;-70
2023/09/25 09:59:29;;;;;;;2.20;1.50;;;;;18.80;99227.00;;;;5052062;28;20023;-69
2023/09/25 10:01:57;;;;;;;2.45;1.58;;;;;18.90;99236.00;;;;5051779;28;20055;-69
2023/09/25 10:04:26;;;;;;;1.48;1.25;;;;;19.00;99238.00;;;;5050299;28;20382;-70
2023/09/25 10:07:05;;;;;;;2.33;1.67;;;;;19.10;99235.00;;;;5052090;28;20051;-70
2023/09/25 10:09:32;;;;;;;2.95;1.50;;;;;19.20;99231.00;;;;5052199;28;20056;-67
2023/09/25 10:12:01;;;;;;;2.25;1.60;;;;;19.20;99231.00;;;;5051952;28;20124;-68
2023/09/25 10:14:31;;;;;;;1.77;1.20;;;;;19.30;99236.00;;;;5050302;28;20052;-67
2023/09/25 10:17:00;;;;;;;1.83;1.45;;;;;19.30;99222.00;;;;5050025;28;20135;-67
2023/09/25 10:19:47;;;;;;;2.35;1.65;;;;;19.50;99227.00;;;;5050657;28;20044;-67
2023/09/25 10:22:30;;;;;;;3.45;1.58;;;;;19.60;99224.00;;;;5050860;28;20052;-67
2023/09/25 10:25:09;;;;;;;2.15;1.45;;;;;19.60;99220.00;;;;5033700;28;20056;-67
2023/09/25 10:27:37;;;;;;;1.73;1.55;;;;;19.70;99227.00;;;;5051897;28;20049;-67
2023/09/25 10:30:11;;;;;;;1.90;1.48;;;;;19.90;99231.00;;;;5051950;28;20172;-68
2023/09/25 10:32:40;;;;;;;2.28;1.33;;;;;20.00;99227.00;;;;5050246;28;20041;-68
2023/09/25 10:35:35;;;;;;;2.95;1.80;;;;;20.10;99228.00;;;;5051016;28;20498;-69
2023/09/25 10:38:10;;;;;;;;;;;;;20.20;99219.00;;;;5050846;28;20124;-67
2023/09/25 10:40:59;;;;;;;4.22;1.48;;;;;20.30;99219.00;;;;5050455;28;19921;-67
2023/09/25 10:43:26;;;;;;;4.40;1.65;;;;;20.30;99229.00;;;;5051277;28;20456;-67
2023/09/25 10:45:54;;;;;;;2.05;1.60;;;;;20.40;99223.00;;;;5051381;28;20118;-67
2023/09/25 10:48:25;;;;;;;1.42;1.30;;;;;20.40;99221.00;;;;5050738;28;20072;-67
2023/09/25 10:50:52;;;;;;;2.75;1.70;;;;;20.50;99222.00;;;;5051799;28;20041;-67
2023/09/25 10:53:19;;;;;;;4.13;1.65;;;;;20.50;99225.00;;;;5050438;28;20045;-68
2023/09/25 10:55:47;;;;;;;1.90;1.45;;;;;20.50;99224.00;;;;5050981;28;20563;-67
2023/09/25 10:58:14;;;;;;;2.15;1.38;;;;;20.60;99214.00;;;;5034251;28;20482;-67
2023/09/25 11:00:42;;;;;;;2.55;1.48;;;;;20.70;99216.00;;;;5051783;28;20072;-67
2023/09/25 11:03:10;;;;;;;2.47;1.23;;;;;20.80;99218.00;;;;5051950;28;20498;-67
2023/09/25 11:05:38;;;;;;;1.60;1.30;;;;;20.90;99208.00;;;;5051087;28;20124;-68
2023/09/25 11:08:06;;;;;;;2.25;1.30;;;;;21.00;99210.00;;;;5051673;28;20047;-67
2023/09/25 11:10:37;;;;;;;1.92;1.52;;;;;21.10;99203.00;;;;5050199;28;20045;-67
2023/09/25 11:13:04;;;;;;;3.05;1.20;;;;;21.20;99207.00;;;;5051722;28;20432;-67
2023/09/25 11:15:36;;;;;;;3.08;1.52;;;;;21.20;99212.00;;;;5050521;28;20444;-68
2023/09/25 11:18:03;;;;;;;2.38;1.50;;;;;21.30;99210.00;;;;5051380;28;20076;-68
2023/09/25 11:20:33;;;;;;;2.10;1.58;;;;;21.50;99207.00;;;;5051340;28;20048;-67
2023/09/25 11:23:04;;;;;;;1.73;1.33;;;;;21.60;99203.00;;;;5051319;28;20124;-68
2023/09/25 11:25:50;;;;;;;4.13;1.70;;;;;21.50;99202.00;;;;5049563;28;20049;-69
2023/09/25 11:28:20;;;;;;;5.65;1.65;;;;;21.60;99203.00;;;;5051319;28;20041;-67
2023/09/25 11:30:47;;;;;;;3.55;1.50;;;;;21.70;99199.00;;;;5053604;28;20041;-67
2023/09/25 11:33:18;;;;;;;1.85;1.20;;;;;21.60;99189.00;;;;5053683;28;20045;-67
2023/09/25 11:35:47;;;;;;;2.00;1.30;;;;;21.60;99188.00;;;;5054201;28;20057;-67
2023/09/25 11:38:17;;;;;;;1.73;1.30;;;;;21.70;99188.00;;;;5053486;28;20053;-67
2023/09/25 11:40:45;;;;;;;2.78;1.30;;;;;21.90;99199.00;;;;5053686;28;20041;-67
2023/09/25 11:43:12;;;;;;;1.90;1.30;;;;;21.90;99184.00;;;;5053490;28;20052;-67
2023/09/25 11:45:40;;;;;;;2.97;1.45;;;;;21.90;99182.00;;;;5052785;28;20051;-67
2023/09/25 11:48:11;;;;;;;1.77;1.30;;;;;22.00;99184.00;;;;5054686;28;20486;-68
2023/09/25 11:50:39;;;;;;;1.77;1.30;;;;;22.10;99177.00;;;;5053256;28;20124;-67
2023/09/25 11:53:06;;;;;;;2.00;1.40;;;;;22.20;99183.00;;;;5053169;28;20041;-67
2023/09/25 11:55:33;;;;;;;2.85;1.50;;;;;22.40;99183.00;;;;5053867;28;20128;-67
2023/09/25 11:58:00;;;;;;;1.40;1.30;;;;;22.40;99179.00;;;;5054391;28;20126;-68
2023/09/25 12:00:27;;;;;;;2.72;1.42;;;;;22.40;99174.00;;;;5053382;28;20079;-68
2023/09/25 12:02:55;;;;;;;2.38;1.42;;;;;22.40;99181.00;;;;5054113;28;20041;-67
2023/09/25 12:05:22;;;;;;;1.70;1.10;;;;;22.50;99179.00;;;;5053839;28;20475;-67
2023/09/25 12:07:50;;;;;;;1.95;1.42;;;;;22.50;99166.00;;;;5036596;28;20055;-67
2023/09/25 12:10:17;;;;;;;1.20;1.02;;;;;22.50;99173.00;;;;5053083;28;20041;-68
2023/09/25 12:12:45;;;;;;;2.13;1.45;;;;;22.60;99170.00;;;;5054088;28;20033;-67
2023/09/25 12:15:12;;;;;;;2.00;1.40;;;;;22.60;99168.00;;;;5053072;28;20222;-67
2023/09/25 12:17:39;;;;;;;2.22;1.13;;;;;22.70;99167.00;;;;5053951;28;20128;-67
2023/09/25 12:20:12;;;;;;;1.83;1.38;;;;;22.80;99173.00;;;;5054166;28;20103;-67
2023/09/25 12:22:46;;;;;;;2.53;1.50;;;;;22.80;99166.00;;;;5052940;28;20049;-68
2023/09/25 12:25:15;;;;;;;2.00;1.40;;;;;22.90;99157.00;;;;5053226;28;20131;-69
2023/09/25 12:27:43;;;;;;;1.73;1.15;;;;;23.00;99161.00;;;;5035945;28;20118;-68